sensor_id;sensor_type;location;lat;lon;timestamp;P1;durP1;ratioP1;P2;durP2;ratioP2
64791;SDS011;51226;47.504;19.074;2023-04-03T00:02:26;5.45;;;4.68;;
64791;SDS011;51226;47.504;19.074;2023-04-03T00:05:30;5.03;;;4.62;;
64791;SDS011;51226;47.504;19.074;2023-04-03T00:08:32;5.90;;;4.70;;
64791;SDS011;51226;47.504;19.074;2023-04-03T00:11:35;5.30;;;4.80;;
64791;SDS011;51226;47.504;19.074;2023-04-03T00:14:38;5.50;;;5.00;;
64791;SDS011;51226;47.504;19.074;2023-04-03T00:17:41;5.32;;;4.82;;
64791;SDS011;51226;47.504;19.074;2023-04-03T00:20:44;5.43;;;4.93;;
64791;SDS011;51226;47.504;19.074;2023-04-03T00:23:47;6.85;;;5.37;;
64791;SDS011;51226;47.504;19.074;2023-04-03T00:26:49;5.78;;;4.70;;
64791;SDS011;51226;47.504;19.074;2023-04-03T00:29:53;6.62;;;5.53;;
64791;SDS011;51226;47.504;19.074;2023-04-03T00:32:55;6.22;;;4.90;;
64791;SDS011;51226;47.504;19.074;2023-04-03T00:39:02;5.80;;;5.30;;
64791;SDS011;51226;47.504;19.074;2023-04-03T00:42:06;6.18;;;5.47;;
64791;SDS011;51226;47.504;19.074;2023-04-03T00:45:22;6.68;;;5.97;;
64791;SDS011;51226;47.504;19.074;2023-04-03T00:48:36;6.53;;;5.70;;
64791;SDS011;51226;47.504;19.074;2023-04-03T00:51:50;7.60;;;5.97;;
64791;SDS011;51226;47.504;19.074;2023-04-03T00:54:54;6.45;;;5.80;;
64791;SDS011;51226;47.504;19.074;2023-04-03T00:57:59;5.07;;;4.45;;
64791;SDS011;51226;47.504;19.074;2023-04-03T01:01:05;5.55;;;4.80;;
64791;SDS011;51226;47.504;19.074;2023-04-03T01:04:27;5.93;;;5.32;;
64791;SDS011;51226;47.504;19.074;2023-04-03T01:07:32;6.28;;;5.20;;
64791;SDS011;51226;47.504;19.074;2023-04-03T01:10:36;6.18;;;5.40;;
64791;SDS011;51226;47.504;19.074;2023-04-03T01:13:39;5.32;;;4.82;;
64791;SDS011;51226;47.504;19.074;2023-04-03T01:16:51;7.90;;;5.20;;
64791;SDS011;51226;47.504;19.074;2023-04-03T01:26:43;6.20;;;5.00;;
64791;SDS011;51226;47.504;19.074;2023-04-03T01:29:47;6.78;;;5.05;;
64791;SDS011;51226;47.504;19.074;2023-04-03T01:32:50;5.12;;;4.62;;
64791;SDS011;51226;47.504;19.074;2023-04-03T01:35:53;5.60;;;5.00;;
64791;SDS011;51226;47.504;19.074;2023-04-03T01:38:57;5.87;;;4.35;;
64791;SDS011;51226;47.504;19.074;2023-04-03T01:42:02;5.68;;;5.10;;
64791;SDS011;51226;47.504;19.074;2023-04-03T01:45:06;5.82;;;5.22;;
64791;SDS011;51226;47.504;19.074;2023-04-03T01:48:10;6.10;;;4.85;;
64791;SDS011;51226;47.504;19.074;2023-04-03T01:51:12;5.47;;;4.75;;
64791;SDS011;51226;47.504;19.074;2023-04-03T01:54:16;5.12;;;4.57;;
64791;SDS011;51226;47.504;19.074;2023-04-03T01:57:20;5.05;;;4.55;;
64791;SDS011;51226;47.504;19.074;2023-04-03T02:00:23;5.25;;;4.60;;
64791;SDS011;51226;47.504;19.074;2023-04-03T02:03:26;5.30;;;4.37;;
64791;SDS011;51226;47.504;19.074;2023-04-03T02:06:29;4.95;;;4.22;;
64791;SDS011;51226;47.504;19.074;2023-04-03T02:09:32;5.28;;;4.03;;
64791;SDS011;51226;47.504;19.074;2023-04-03T02:12:35;4.12;;;3.75;;
64791;SDS011;51226;47.504;19.074;2023-04-03T02:15:38;5.28;;;4.35;;
64791;SDS011;51226;47.504;19.074;2023-04-03T02:18:42;4.53;;;4.10;;
64791;SDS011;51226;47.504;19.074;2023-04-03T02:21:45;4.72;;;4.30;;
64791;SDS011;51226;47.504;19.074;2023-04-03T02:24:49;4.05;;;3.65;;
64791;SDS011;51226;47.504;19.074;2023-04-03T02:27:54;4.75;;;4.30;;
64791;SDS011;51226;47.504;19.074;2023-04-03T02:30:58;4.15;;;3.75;;
64791;SDS011;51226;47.504;19.074;2023-04-03T02:34:01;4.87;;;4.40;;
64791;SDS011;51226;47.504;19.074;2023-04-03T02:40:07;4.75;;;4.30;;
64791;SDS011;51226;47.504;19.074;2023-04-03T02:43:11;4.20;;;3.80;;
64791;SDS011;51226;47.504;19.074;2023-04-03T02:46:14;4.53;;;3.90;;
64791;SDS011;51226;47.504;19.074;2023-04-03T02:49:18;4.12;;;3.72;;
64791;SDS011;51226;47.504;19.074;2023-04-03T02:52:21;4.73;;;4.03;;
64791;SDS011;51226;47.504;19.074;2023-04-03T02:55:25;4.78;;;3.87;;
64791;SDS011;51226;47.504;19.074;2023-04-03T02:58:29;4.20;;;3.80;;
64791;SDS011;51226;47.504;19.074;2023-04-03T03:01:32;4.10;;;3.53;;
64791;SDS011;51226;47.504;19.074;2023-04-03T03:04:35;4.32;;;3.92;;
64791;SDS011;51226;47.504;19.074;2023-04-03T03:07:38;4.20;;;3.80;;
64791;SDS011;51226;47.504;19.074;2023-04-03T03:10:41;4.72;;;4.00;;
64791;SDS011;51226;47.504;19.074;2023-04-03T03:13:44;4.95;;;4.45;;
64791;SDS011;51226;47.504;19.074;2023-04-03T03:16:47;4.20;;;3.80;;
64791;SDS011;51226;47.504;19.074;2023-04-03T03:19:50;4.47;;;4.07;;
64791;SDS011;51226;47.504;19.074;2023-04-03T03:22:53;4.90;;;4.40;;
64791;SDS011;51226;47.504;19.074;2023-04-03T03:25:58;4.47;;;3.80;;
64791;SDS011;51226;47.504;19.074;2023-04-03T03:29:02;4.40;;;4.00;;
64791;SDS011;51226;47.504;19.074;2023-04-03T03:32:05;5.05;;;3.95;;
64791;SDS011;51226;47.504;19.074;2023-04-03T03:35:08;4.23;;;3.83;;
64791;SDS011;51226;47.504;19.074;2023-04-03T03:41:14;4.03;;;3.58;;
64791;SDS011;51226;47.504;19.074;2023-04-03T03:47:20;5.50;;;3.87;;
64791;SDS011;51226;47.504;19.074;2023-04-03T03:53:25;4.28;;;3.60;;
64791;SDS011;51226;47.504;19.074;2023-04-03T03:56:29;4.95;;;3.92;;
64791;SDS011;51226;47.504;19.074;2023-04-03T03:59:32;4.97;;;3.80;;
64791;SDS011;51226;47.504;19.074;2023-04-03T04:02:35;4.65;;;4.05;;
64791;SDS011;51226;47.504;19.074;2023-04-03T04:08:42;5.20;;;4.05;;
64791;SDS011;51226;47.504;19.074;2023-04-03T04:11:45;5.00;;;4.37;;
64791;SDS011;51226;47.504;19.074;2023-04-03T04:14:48;4.80;;;4.28;;
64791;SDS011;51226;47.504;19.074;2023-04-03T04:17:51;4.30;;;3.90;;
64791;SDS011;51226;47.504;19.074;2023-04-03T04:20:56;4.78;;;4.18;;
64791;SDS011;51226;47.504;19.074;2023-04-03T04:23:59;5.15;;;4.65;;
64791;SDS011;51226;47.504;19.074;2023-04-03T04:27:03;4.37;;;3.87;;
64791;SDS011;51226;47.504;19.074;2023-04-03T04:30:06;4.72;;;4.10;;
64791;SDS011;51226;47.504;19.074;2023-04-03T04:33:10;5.60;;;4.35;;
64791;SDS011;51226;47.504;19.074;2023-04-03T04:36:13;6.47;;;4.53;;
64791;SDS011;51226;47.504;19.074;2023-04-03T04:39:17;5.72;;;4.82;;
64791;SDS011;51226;47.504;19.074;2023-04-03T04:42:20;9.07;;;6.28;;
64791;SDS011;51226;47.504;19.074;2023-04-03T04:45:24;6.47;;;5.10;;
64791;SDS011;51226;47.504;19.074;2023-04-03T04:51:32;5.07;;;4.28;;
64791;SDS011;51226;47.504;19.074;2023-04-03T04:54:46;4.35;;;3.92;;
64791;SDS011;51226;47.504;19.074;2023-04-03T05:04:03;5.65;;;4.62;;
64791;SDS011;51226;47.504;19.074;2023-04-03T05:07:06;5.05;;;4.57;;
64791;SDS011;51226;47.504;19.074;2023-04-03T05:10:10;5.22;;;4.20;;
64791;SDS011;51226;47.504;19.074;2023-04-03T05:13:14;4.47;;;3.95;;
64791;SDS011;51226;47.504;19.074;2023-04-03T05:19:21;4.68;;;4.03;;
64791;SDS011;51226;47.504;19.074;2023-04-03T05:22:25;8.20;;;6.72;;
64791;SDS011;51226;47.504;19.074;2023-04-03T05:25:29;7.10;;;5.60;;
64791;SDS011;51226;47.504;19.074;2023-04-03T05:28:33;6.12;;;4.80;;
64791;SDS011;51226;47.504;19.074;2023-04-03T05:37:43;8.63;;;6.30;;
64791;SDS011;51226;47.504;19.074;2023-04-03T05:40:46;7.22;;;5.10;;
64791;SDS011;51226;47.504;19.074;2023-04-03T05:43:49;4.72;;;4.10;;
64791;SDS011;51226;47.504;19.074;2023-04-03T05:46:53;5.62;;;4.22;;
64791;SDS011;51226;47.504;19.074;2023-04-03T05:49:57;7.10;;;4.43;;
64791;SDS011;51226;47.504;19.074;2023-04-03T05:53:00;6.57;;;4.32;;
64791;SDS011;51226;47.504;19.074;2023-04-03T05:56:06;5.82;;;4.53;;
64791;SDS011;51226;47.504;19.074;2023-04-03T05:59:10;5.40;;;4.80;;
64791;SDS011;51226;47.504;19.074;2023-04-03T06:02:15;4.45;;;3.87;;
64791;SDS011;51226;47.504;19.074;2023-04-03T06:05:21;5.12;;;4.12;;
64791;SDS011;51226;47.504;19.074;2023-04-03T06:08:24;4.72;;;4.28;;
64791;SDS011;51226;47.504;19.074;2023-04-03T06:14:30;5.03;;;4.25;;
64791;SDS011;51226;47.504;19.074;2023-04-03T06:17:33;4.45;;;4.05;;
64791;SDS011;51226;47.504;19.074;2023-04-03T06:20:36;6.07;;;4.50;;
64791;SDS011;51226;47.504;19.074;2023-04-03T06:23:40;6.32;;;3.85;;
64791;SDS011;51226;47.504;19.074;2023-04-03T06:26:43;4.27;;;3.73;;
64791;SDS011;51226;47.504;19.074;2023-04-03T06:29:47;4.53;;;3.55;;
64791;SDS011;51226;47.504;19.074;2023-04-03T06:32:50;5.72;;;4.47;;
64791;SDS011;51226;47.504;19.074;2023-04-03T06:35:58;6.20;;;4.12;;
64791;SDS011;51226;47.504;19.074;2023-04-03T06:39:01;5.45;;;4.10;;
64791;SDS011;51226;47.504;19.074;2023-04-03T06:42:05;5.55;;;4.50;;
64791;SDS011;51226;47.504;19.074;2023-04-03T06:45:09;4.90;;;4.40;;
64791;SDS011;51226;47.504;19.074;2023-04-03T06:48:14;6.90;;;4.35;;
64791;SDS011;51226;47.504;19.074;2023-04-03T06:51:21;4.53;;;4.13;;
64791;SDS011;51226;47.504;19.074;2023-04-03T06:54:25;7.12;;;4.10;;
64791;SDS011;51226;47.504;19.074;2023-04-03T06:57:27;5.00;;;4.50;;
64791;SDS011;51226;47.504;19.074;2023-04-03T07:03:33;7.28;;;4.10;;
64791;SDS011;51226;47.504;19.074;2023-04-03T07:06:37;4.68;;;4.28;;
64791;SDS011;51226;47.504;19.074;2023-04-03T07:09:39;7.77;;;4.03;;
64791;SDS011;51226;47.504;19.074;2023-04-03T07:12:45;4.32;;;3.40;;
64791;SDS011;51226;47.504;19.074;2023-04-03T07:15:48;4.65;;;3.30;;
64791;SDS011;51226;47.504;19.074;2023-04-03T07:21:54;8.02;;;3.17;;
64791;SDS011;51226;47.504;19.074;2023-04-03T07:24:57;4.55;;;3.15;;
64791;SDS011;51226;47.504;19.074;2023-04-03T07:28:01;3.42;;;2.80;;
64791;SDS011;51226;47.504;19.074;2023-04-03T07:34:10;4.25;;;2.75;;
64791;SDS011;51226;47.504;19.074;2023-04-03T07:37:14;4.43;;;2.60;;
64791;SDS011;51226;47.504;19.074;2023-04-03T07:40:16;2.22;;;1.98;;
64791;SDS011;51226;47.504;19.074;2023-04-03T07:43:21;2.65;;;2.25;;
64791;SDS011;51226;47.504;19.074;2023-04-03T07:46:24;2.75;;;2.55;;
64791;SDS011;51226;47.504;19.074;2023-04-03T07:49:27;2.33;;;2.03;;
64791;SDS011;51226;47.504;19.074;2023-04-03T07:52:30;3.15;;;2.40;;
64791;SDS011;51226;47.504;19.074;2023-04-03T07:55:34;2.40;;;2.20;;
64791;SDS011;51226;47.504;19.074;2023-04-03T07:58:39;2.30;;;2.10;;
64791;SDS011;51226;47.504;19.074;2023-04-03T08:04:46;4.35;;;2.28;;
64791;SDS011;51226;47.504;19.074;2023-04-03T08:07:49;2.42;;;2.22;;
64791;SDS011;51226;47.504;19.074;2023-04-03T08:10:52;2.97;;;2.20;;
64791;SDS011;51226;47.504;19.074;2023-04-03T08:13:56;2.40;;;2.25;;
64791;SDS011;51226;47.504;19.074;2023-04-03T08:17:00;2.58;;;2.37;;
64791;SDS011;51226;47.504;19.074;2023-04-03T08:20:06;2.65;;;2.45;;
64791;SDS011;51226;47.504;19.074;2023-04-03T08:23:10;3.30;;;2.62;;
64791;SDS011;51226;47.504;19.074;2023-04-03T08:26:14;3.37;;;2.80;;
64791;SDS011;51226;47.504;19.074;2023-04-03T08:29:19;3.03;;;2.70;;
64791;SDS011;51226;47.504;19.074;2023-04-03T08:32:23;3.10;;;2.67;;
64791;SDS011;51226;47.504;19.074;2023-04-03T08:38:30;3.42;;;2.40;;
64791;SDS011;51226;47.504;19.074;2023-04-03T08:44:39;2.67;;;2.47;;
64791;SDS011;51226;47.504;19.074;2023-04-03T08:51:18;2.28;;;1.92;;
64791;SDS011;51226;47.504;19.074;2023-04-03T08:54:28;2.92;;;2.45;;
64791;SDS011;51226;47.504;19.074;2023-04-03T09:00:55;2.22;;;1.98;;
64791;SDS011;51226;47.504;19.074;2023-04-03T09:04:05;1.90;;;1.73;;
64791;SDS011;51226;47.504;19.074;2023-04-03T09:07:16;2.20;;;2.00;;
64791;SDS011;51226;47.504;19.074;2023-04-03T09:10:29;2.62;;;1.60;;
64791;SDS011;51226;47.504;19.074;2023-04-03T09:16:55;2.25;;;1.60;;
64791;SDS011;51226;47.504;19.074;2023-04-03T09:20:09;1.40;;;1.30;;
64791;SDS011;51226;47.504;19.074;2023-04-03T09:23:24;2.00;;;1.80;;
64791;SDS011;51226;47.504;19.074;2023-04-03T09:26:39;2.45;;;1.58;;
64791;SDS011;51226;47.504;19.074;2023-04-03T09:29:54;3.17;;;1.62;;
64791;SDS011;51226;47.504;19.074;2023-04-03T09:32:58;1.85;;;1.52;;
64791;SDS011;51226;47.504;19.074;2023-04-03T09:39:04;2.70;;;2.13;;
64791;SDS011;51226;47.504;19.074;2023-04-03T09:42:21;2.28;;;2.08;;
64791;SDS011;51226;47.504;19.074;2023-04-03T09:45:29;2.80;;;1.87;;
64791;SDS011;51226;47.504;19.074;2023-04-03T09:48:37;2.00;;;1.90;;
64791;SDS011;51226;47.504;19.074;2023-04-03T09:51:40;3.42;;;2.00;;
64791;SDS011;51226;47.504;19.074;2023-04-03T09:54:43;1.92;;;1.83;;
64791;SDS011;51226;47.504;19.074;2023-04-03T09:57:46;2.25;;;1.80;;
64791;SDS011;51226;47.504;19.074;2023-04-03T10:00:55;2.33;;;1.65;;
64791;SDS011;51226;47.504;19.074;2023-04-03T10:04:16;2.08;;;1.90;;
64791;SDS011;51226;47.504;19.074;2023-04-03T10:07:32;1.75;;;1.65;;
64791;SDS011;51226;47.504;19.074;2023-04-03T10:10:38;2.00;;;1.90;;
64791;SDS011;51226;47.504;19.074;2023-04-03T10:13:56;2.65;;;2.00;;
64791;SDS011;51226;47.504;19.074;2023-04-03T10:17:09;1.60;;;1.50;;
64791;SDS011;51226;47.504;19.074;2023-04-03T10:23:36;2.97;;;2.17;;
64791;SDS011;51226;47.504;19.074;2023-04-03T10:30:19;1.60;;;1.50;;
64791;SDS011;51226;47.504;19.074;2023-04-03T10:43:36;2.53;;;1.90;;
64791;SDS011;51226;47.504;19.074;2023-04-03T10:46:45;2.12;;;1.92;;
64791;SDS011;51226;47.504;19.074;2023-04-03T10:57:19;3.05;;;1.80;;
64791;SDS011;51226;47.504;19.074;2023-04-03T11:00:39;2.58;;;1.90;;
64791;SDS011;51226;47.504;19.074;2023-04-03T11:03:47;2.58;;;1.55;;
64791;SDS011;51226;47.504;19.074;2023-04-03T11:06:59;1.77;;;1.67;;
64791;SDS011;51226;47.504;19.074;2023-04-03T11:10:12;2.15;;;1.65;;
64791;SDS011;51226;47.504;19.074;2023-04-03T11:17:45;1.75;;;1.48;;
64791;SDS011;51226;47.504;19.074;2023-04-03T11:20:27;1.40;;;1.30;;
64791;SDS011;51226;47.504;19.074;2023-04-03T11:23:36;1.48;;;1.37;;
64791;SDS011;51226;47.504;19.074;2023-04-03T11:26:51;3.03;;;1.62;;
64791;SDS011;51226;47.504;19.074;2023-04-03T11:29:57;2.60;;;1.40;;
64791;SDS011;51226;47.504;19.074;2023-04-03T11:33:13;1.45;;;1.35;;
64791;SDS011;51226;47.504;19.074;2023-04-03T11:36:42;15.00;;;11.70;;
64791;SDS011;51226;47.504;19.074;2023-04-03T11:40:00;5.22;;;4.72;;
64791;SDS011;51226;47.504;19.074;2023-04-03T11:43:17;2.55;;;2.25;;
64791;SDS011;51226;47.504;19.074;2023-04-03T11:46:48;2.58;;;2.37;;
64791;SDS011;51226;47.504;19.074;2023-04-03T11:50:03;2.15;;;1.40;;
64791;SDS011;51226;47.504;19.074;2023-04-03T11:59:26;2.10;;;2.00;;
64791;SDS011;51226;47.504;19.074;2023-04-03T12:02:40;2.00;;;1.40;;
64791;SDS011;51226;47.504;19.074;2023-04-03T12:12:55;6.50;;;3.05;;
64791;SDS011;51226;47.504;19.074;2023-04-03T12:15:59;1.42;;;1.33;;
64791;SDS011;51226;47.504;19.074;2023-04-03T12:22:23;1.30;;;1.20;;
64791;SDS011;51226;47.504;19.074;2023-04-03T12:52:33;0.90;;;0.90;;
64791;SDS011;51226;47.504;19.074;2023-04-03T12:55:56;1.85;;;1.15;;
64791;SDS011;51226;47.504;19.074;2023-04-03T12:59:24;1.92;;;1.37;;
64791;SDS011;51226;47.504;19.074;2023-04-03T13:02:29;1.75;;;1.52;;
64791;SDS011;51226;47.504;19.074;2023-04-03T13:05:33;1.77;;;1.50;;
64791;SDS011;51226;47.504;19.074;2023-04-03T13:08:38;1.67;;;1.42;;
64791;SDS011;51226;47.504;19.074;2023-04-03T13:18:34;1.58;;;1.30;;
64791;SDS011;51226;47.504;19.074;2023-04-03T13:21:37;1.52;;;1.40;;
64791;SDS011;51226;47.504;19.074;2023-04-03T13:27:43;2.00;;;1.60;;
64791;SDS011;51226;47.504;19.074;2023-04-03T13:30:55;2.22;;;1.75;;
64791;SDS011;51226;47.504;19.074;2023-04-03T13:34:15;0.95;;;0.95;;
64791;SDS011;51226;47.504;19.074;2023-04-03T13:37:31;1.30;;;1.20;;
64791;SDS011;51226;47.504;19.074;2023-04-03T13:40:46;2.50;;;1.52;;
64791;SDS011;51226;47.504;19.074;2023-04-03T13:43:55;2.25;;;1.60;;
64791;SDS011;51226;47.504;19.074;2023-04-03T13:50:22;2.60;;;1.65;;
64791;SDS011;51226;47.504;19.074;2023-04-03T13:53:27;1.60;;;1.30;;
64791;SDS011;51226;47.504;19.074;2023-04-03T13:56:34;1.35;;;1.25;;
64791;SDS011;51226;47.504;19.074;2023-04-03T13:59:44;2.83;;;1.80;;
64791;SDS011;51226;47.504;19.074;2023-04-03T14:02:47;1.40;;;1.30;;
64791;SDS011;51226;47.504;19.074;2023-04-03T14:05:51;1.50;;;1.40;;
64791;SDS011;51226;47.504;19.074;2023-04-03T14:12:01;3.20;;;1.23;;
64791;SDS011;51226;47.504;19.074;2023-04-03T14:15:18;1.75;;;1.27;;
64791;SDS011;51226;47.504;19.074;2023-04-03T14:18:29;3.53;;;1.20;;
64791;SDS011;51226;47.504;19.074;2023-04-03T14:21:32;1.40;;;1.30;;
64791;SDS011;51226;47.504;19.074;2023-04-03T14:27:39;1.75;;;1.42;;
64791;SDS011;51226;47.504;19.074;2023-04-03T14:30:44;1.58;;;1.48;;
64791;SDS011;51226;47.504;19.074;2023-04-03T14:33:48;1.50;;;1.40;;
64791;SDS011;51226;47.504;19.074;2023-04-03T14:36:52;2.35;;;1.20;;
64791;SDS011;51226;47.504;19.074;2023-04-03T14:39:55;1.35;;;1.25;;
64791;SDS011;51226;47.504;19.074;2023-04-03T14:42:59;1.42;;;1.33;;
64791;SDS011;51226;47.504;19.074;2023-04-03T14:46:02;5.97;;;4.72;;
64791;SDS011;51226;47.504;19.074;2023-04-03T14:49:09;9.70;;;7.55;;
64791;SDS011;51226;47.504;19.074;2023-04-03T14:55:32;1.33;;;1.23;;
64791;SDS011;51226;47.504;19.074;2023-04-03T14:58:35;1.95;;;1.20;;
64791;SDS011;51226;47.504;19.074;2023-04-03T15:01:38;1.25;;;1.10;;
64791;SDS011;51226;47.504;19.074;2023-04-03T15:04:42;1.58;;;1.05;;
64791;SDS011;51226;47.504;19.074;2023-04-03T15:07:49;2.72;;;1.40;;
64791;SDS011;51226;47.504;19.074;2023-04-03T15:10:56;1.10;;;1.00;;
64791;SDS011;51226;47.504;19.074;2023-04-03T15:14:03;1.30;;;1.20;;
64791;SDS011;51226;47.504;19.074;2023-04-03T15:20:17;1.80;;;1.70;;
64791;SDS011;51226;47.504;19.074;2023-04-03T15:23:21;1.50;;;1.40;;
64791;SDS011;51226;47.504;19.074;2023-04-03T15:26:28;13.70;;;10.52;;
64791;SDS011;51226;47.504;19.074;2023-04-03T15:29:31;5.45;;;4.35;;
64791;SDS011;51226;47.504;19.074;2023-04-03T15:32:34;3.90;;;2.10;;
64791;SDS011;51226;47.504;19.074;2023-04-03T15:35:37;1.87;;;1.73;;
64791;SDS011;51226;47.504;19.074;2023-04-03T15:38:41;1.90;;;1.60;;
64791;SDS011;51226;47.504;19.074;2023-04-03T15:41:44;4.80;;;2.10;;
64791;SDS011;51226;47.504;19.074;2023-04-03T15:44:48;2.92;;;2.28;;
64791;SDS011;51226;47.504;19.074;2023-04-03T15:47:51;3.20;;;2.53;;
64791;SDS011;51226;47.504;19.074;2023-04-03T15:50:54;2.80;;;2.33;;
64791;SDS011;51226;47.504;19.074;2023-04-03T15:53:59;3.00;;;2.47;;
64791;SDS011;51226;47.504;19.074;2023-04-03T15:57:02;3.12;;;2.60;;
64791;SDS011;51226;47.504;19.074;2023-04-03T16:00:05;3.00;;;2.62;;
64791;SDS011;51226;47.504;19.074;2023-04-03T16:03:10;3.22;;;2.25;;
64791;SDS011;51226;47.504;19.074;2023-04-03T16:06:18;2.87;;;2.20;;
64791;SDS011;51226;47.504;19.074;2023-04-03T16:09:21;5.37;;;4.03;;
64791;SDS011;51226;47.504;19.074;2023-04-03T16:12:24;5.05;;;3.03;;
64791;SDS011;51226;47.504;19.074;2023-04-03T16:15:27;5.87;;;2.25;;
64791;SDS011;51226;47.504;19.074;2023-04-03T16:18:30;3.25;;;2.45;;
64791;SDS011;51226;47.504;19.074;2023-04-03T16:21:33;6.62;;;2.80;;
64791;SDS011;51226;47.504;19.074;2023-04-03T16:24:36;2.67;;;2.03;;
64791;SDS011;51226;47.504;19.074;2023-04-03T16:27:40;2.55;;;2.10;;
64791;SDS011;51226;47.504;19.074;2023-04-03T16:33:47;2.30;;;1.83;;
64791;SDS011;51226;47.504;19.074;2023-04-03T16:36:51;1.95;;;1.75;;
64791;SDS011;51226;47.504;19.074;2023-04-03T16:39:54;5.12;;;1.98;;
64791;SDS011;51226;47.504;19.074;2023-04-03T16:42:57;2.12;;;1.92;;
64791;SDS011;51226;47.504;19.074;2023-04-03T16:46:01;1.80;;;1.70;;
64791;SDS011;51226;47.504;19.074;2023-04-03T16:49:05;2.05;;;1.65;;
64791;SDS011;51226;47.504;19.074;2023-04-03T16:52:08;1.60;;;1.50;;
64791;SDS011;51226;47.504;19.074;2023-04-03T16:55:10;1.77;;;1.45;;
64791;SDS011;51226;47.504;19.074;2023-04-03T16:58:13;1.85;;;1.60;;
64791;SDS011;51226;47.504;19.074;2023-04-03T17:01:17;3.12;;;1.92;;
64791;SDS011;51226;47.504;19.074;2023-04-03T17:04:21;4.45;;;2.15;;
64791;SDS011;51226;47.504;19.074;2023-04-03T17:07:24;3.33;;;2.28;;
64791;SDS011;51226;47.504;19.074;2023-04-03T17:10:28;3.08;;;2.42;;
64791;SDS011;51226;47.504;19.074;2023-04-03T17:13:31;4.30;;;2.42;;
64791;SDS011;51226;47.504;19.074;2023-04-03T17:16:36;4.25;;;2.28;;
64791;SDS011;51226;47.504;19.074;2023-04-03T17:19:40;2.00;;;1.80;;
64791;SDS011;51226;47.504;19.074;2023-04-03T17:22:44;3.87;;;2.05;;
64791;SDS011;51226;47.504;19.074;2023-04-03T17:25:47;3.60;;;2.20;;
64791;SDS011;51226;47.504;19.074;2023-04-03T17:28:50;7.22;;;4.60;;
64791;SDS011;51226;47.504;19.074;2023-04-03T17:31:54;4.18;;;2.53;;
64791;SDS011;51226;47.504;19.074;2023-04-03T17:34:57;4.10;;;2.53;;
64791;SDS011;51226;47.504;19.074;2023-04-03T17:38:00;2.83;;;1.92;;
64791;SDS011;51226;47.504;19.074;2023-04-03T17:41:04;3.78;;;2.70;;
64791;SDS011;51226;47.504;19.074;2023-04-03T17:44:08;3.65;;;2.45;;
64791;SDS011;51226;47.504;19.074;2023-04-03T17:47:11;2.50;;;2.25;;
64791;SDS011;51226;47.504;19.074;2023-04-03T17:50:14;2.90;;;2.30;;
64791;SDS011;51226;47.504;19.074;2023-04-03T17:56:21;2.37;;;2.17;;
64791;SDS011;51226;47.504;19.074;2023-04-03T17:59:26;2.30;;;2.10;;
64791;SDS011;51226;47.504;19.074;2023-04-03T18:02:30;2.47;;;2.15;;
64791;SDS011;51226;47.504;19.074;2023-04-03T18:05:33;1.80;;;1.70;;
64791;SDS011;51226;47.504;19.074;2023-04-03T18:08:40;5.68;;;3.95;;
64791;SDS011;51226;47.504;19.074;2023-04-03T18:11:46;5.20;;;3.85;;
64791;SDS011;51226;47.504;19.074;2023-04-03T18:14:51;4.03;;;2.33;;
64791;SDS011;51226;47.504;19.074;2023-04-03T18:17:54;2.67;;;1.80;;
64791;SDS011;51226;47.504;19.074;2023-04-03T18:20:58;3.58;;;2.25;;
64791;SDS011;51226;47.504;19.074;2023-04-03T18:24:01;2.37;;;1.58;;
64791;SDS011;51226;47.504;19.074;2023-04-03T18:27:14;2.70;;;2.35;;
64791;SDS011;51226;47.504;19.074;2023-04-03T18:30:19;2.20;;;2.00;;
64791;SDS011;51226;47.504;19.074;2023-04-03T18:33:24;3.90;;;2.92;;
64791;SDS011;51226;47.504;19.074;2023-04-03T18:36:27;3.65;;;2.37;;
64791;SDS011;51226;47.504;19.074;2023-04-03T18:39:30;2.08;;;1.85;;
64791;SDS011;51226;47.504;19.074;2023-04-03T18:42:33;3.03;;;2.10;;
64791;SDS011;51226;47.504;19.074;2023-04-03T18:45:37;2.90;;;2.45;;
64791;SDS011;51226;47.504;19.074;2023-04-03T18:48:40;4.05;;;1.85;;
64791;SDS011;51226;47.504;19.074;2023-04-03T18:51:43;2.15;;;1.77;;
64791;SDS011;51226;47.504;19.074;2023-04-03T18:57:49;6.05;;;2.22;;
64791;SDS011;51226;47.504;19.074;2023-04-03T19:00:52;2.03;;;1.85;;
64791;SDS011;51226;47.504;19.074;2023-04-03T19:03:55;2.33;;;1.67;;
64791;SDS011;51226;47.504;19.074;2023-04-03T19:06:58;2.75;;;1.95;;
64791;SDS011;51226;47.504;19.074;2023-04-03T19:10:05;2.20;;;1.60;;
64791;SDS011;51226;47.504;19.074;2023-04-03T19:13:09;2.37;;;2.00;;
64791;SDS011;51226;47.504;19.074;2023-04-03T19:16:12;2.20;;;2.00;;
64791;SDS011;51226;47.504;19.074;2023-04-03T19:22:18;7.57;;;4.53;;
64791;SDS011;51226;47.504;19.074;2023-04-03T19:25:21;3.85;;;2.35;;
64791;SDS011;51226;47.504;19.074;2023-04-03T19:28:24;2.90;;;2.40;;
64791;SDS011;51226;47.504;19.074;2023-04-03T19:31:27;2.92;;;2.45;;
64791;SDS011;51226;47.504;19.074;2023-04-03T19:34:37;2.53;;;1.80;;
64791;SDS011;51226;47.504;19.074;2023-04-03T19:37:40;3.58;;;2.45;;
64791;SDS011;51226;47.504;19.074;2023-04-03T19:40:44;2.65;;;2.10;;
64791;SDS011;51226;47.504;19.074;2023-04-03T19:43:47;4.53;;;2.60;;
64791;SDS011;51226;47.504;19.074;2023-04-03T19:46:53;5.30;;;2.50;;
64791;SDS011;51226;47.504;19.074;2023-04-03T19:49:56;3.20;;;2.40;;
64791;SDS011;51226;47.504;19.074;2023-04-03T19:52:59;3.72;;;2.20;;
64791;SDS011;51226;47.504;19.074;2023-04-03T19:56:03;3.95;;;2.05;;
64791;SDS011;51226;47.504;19.074;2023-04-03T20:02:09;3.67;;;2.30;;
64791;SDS011;51226;47.504;19.074;2023-04-03T20:05:12;3.65;;;2.30;;
64791;SDS011;51226;47.504;19.074;2023-04-03T20:08:15;3.25;;;2.15;;
64791;SDS011;51226;47.504;19.074;2023-04-03T20:11:19;3.45;;;2.15;;
64791;SDS011;51226;47.504;19.074;2023-04-03T20:14:22;5.10;;;2.60;;
64791;SDS011;51226;47.504;19.074;2023-04-03T20:20:28;4.97;;;2.40;;
64791;SDS011;51226;47.504;19.074;2023-04-03T20:23:31;2.80;;;2.40;;
64791;SDS011;51226;47.504;19.074;2023-04-03T20:29:43;3.17;;;1.92;;
64791;SDS011;51226;47.504;19.074;2023-04-03T20:32:46;7.45;;;2.47;;
64791;SDS011;51226;47.504;19.074;2023-04-03T20:35:50;3.00;;;2.25;;
64791;SDS011;51226;47.504;19.074;2023-04-03T20:38:55;3.83;;;2.22;;
64791;SDS011;51226;47.504;19.074;2023-04-03T20:41:59;5.78;;;2.58;;
64791;SDS011;51226;47.504;19.074;2023-04-03T20:45:01;3.20;;;2.20;;
64791;SDS011;51226;47.504;19.074;2023-04-03T20:51:09;5.30;;;2.28;;
64791;SDS011;51226;47.504;19.074;2023-04-03T20:54:16;3.83;;;2.50;;
64791;SDS011;51226;47.504;19.074;2023-04-03T21:00:22;3.92;;;2.22;;
64791;SDS011;51226;47.504;19.074;2023-04-03T21:03:26;4.05;;;2.65;;
64791;SDS011;51226;47.504;19.074;2023-04-03T21:20:38;3.42;;;2.50;;
64791;SDS011;51226;47.504;19.074;2023-04-03T21:23:41;2.80;;;2.12;;
64791;SDS011;51226;47.504;19.074;2023-04-03T21:26:45;2.87;;;2.08;;
64791;SDS011;51226;47.504;19.074;2023-04-03T21:29:47;2.58;;;2.35;;
64791;SDS011;51226;47.504;19.074;2023-04-03T21:32:51;2.95;;;1.95;;
64791;SDS011;51226;47.504;19.074;2023-04-03T21:35:53;3.90;;;2.37;;
64791;SDS011;51226;47.504;19.074;2023-04-03T21:39:00;4.40;;;2.10;;
64791;SDS011;51226;47.504;19.074;2023-04-03T21:42:02;2.72;;;2.25;;
64791;SDS011;51226;47.504;19.074;2023-04-03T21:48:09;4.03;;;2.30;;
64791;SDS011;51226;47.504;19.074;2023-04-03T21:51:12;3.40;;;2.37;;
64791;SDS011;51226;47.504;19.074;2023-04-03T21:54:15;3.80;;;2.05;;
64791;SDS011;51226;47.504;19.074;2023-04-03T22:00:23;3.30;;;2.60;;
64791;SDS011;51226;47.504;19.074;2023-04-03T22:03:26;4.93;;;2.00;;